Time;durP1;ratioP1;P1;durP2;ratioP2;P2;SDS_P1;SDS_P2;PMS_P1;PMS_P2;Temp;Humidity;BMP_temperature;BMP_pressure;BME280_temperature;BME280_humidity;BME280_pressure;Samples;Min_cycle;Max_cycle;Signal;HPM_P1;HPM_P2
2024/02/16 00:02:26;;;;;;;4.68;2.05;;;;;;;14.87;59.56;100942.22;4945559;28;118952;-80
2024/02/16 00:04:54;;;;;;;3.85;1.88;;;;;;;14.84;59.69;100950.38;4955954;28;123294;-80
2024/02/16 00:07:21;;;;;;;4.57;2.05;;;;;;;14.83;59.66;100946.03;4956095;28;125058;-80
2024/02/16 00:09:48;;;;;;;3.78;2.17;;;;;;;14.80;59.63;100951.53;4965287;28;119476;-81
2024/02/16 00:12:16;;;;;;;5.07;2.28;;;;;;;14.80;59.84;100951.53;4952346;28;117510;-80
2024/02/16 00:14:45;;;;;;;5.13;2.15;;;;;;;14.77;59.65;100946.41;4955964;28;124393;-80
2024/02/16 00:17:13;;;;;;;3.20;2.05;;;;;;;14.74;59.71;100946.59;4948110;28;122548;-80
2024/02/16 00:19:40;;;;;;;6.13;2.33;;;;;;;14.73;59.69;100939.53;4962296;28;119884;-80
2024/02/16 00:22:08;;;;;;;7.03;2.40;;;;;;;14.71;59.61;100930.75;4963893;28;119036;-80
2024/02/16 00:24:36;;;;;;;7.53;2.10;;;;;;;14.69;59.65;100930.00;4944482;28;122549;-80
2024/02/16 00:27:05;;;;;;;4.63;2.22;;;;;;;14.64;59.75;100924.97;4952066;28;124698;-80
2024/02/16 00:29:33;;;;;;;3.40;2.05;;;;;;;14.63;59.77;100933.06;4953449;28;119565;-80
2024/02/16 00:32:00;;;;;;;5.13;2.35;;;;;;;14.63;59.84;100930.38;4965335;28;120567;-80
2024/02/16 00:34:27;;;;;;;5.13;2.33;;;;;;;14.61;59.84;100930.47;4960143;28;124226;-80
2024/02/16 00:36:55;;;;;;;5.85;2.30;;;;;;;14.60;59.94;100924.28;4956150;28;122001;-80
2024/02/16 00:39:22;;;;;;;4.90;2.35;;;;;;;14.58;60.01;100931.53;4946145;28;118360;-80
2024/02/16 00:41:49;;;;;;;5.10;2.15;;;;;;;14.57;59.74;100929.78;4953244;28;117937;-80
2024/02/16 00:44:17;;;;;;;4.00;2.00;;;;;;;14.54;59.87;100921.97;4947003;28;123937;-80
2024/02/16 00:46:45;;;;;;;5.38;2.30;;;;;;;14.52;60.10;100915.88;4962970;28;123377;-80
2024/02/16 00:49:12;;;;;;;8.27;2.28;;;;;;;14.53;60.06;100917.59;4965926;28;119361;-80
2024/02/16 00:51:40;;;;;;;4.88;2.03;;;;;;;14.53;60.42;100917.59;4955004;28;119468;-80
2024/02/16 00:54:07;;;;;;;5.38;2.50;;;;;;;14.54;60.14;100923.75;4963219;28;123110;-80
2024/02/16 00:56:35;;;;;;;6.35;2.20;;;;;;;14.53;60.20;100922.91;4953176;28;123187;-80
2024/02/16 00:59:02;;;;;;;5.03;2.20;;;;;;;14.54;60.16;100919.31;4974046;28;118634;-80
2024/02/16 01:01:30;;;;;;;6.00;2.58;;;;;;;14.53;60.52;100917.59;4966601;28;121184;-80
2024/02/16 01:03:57;;;;;;;3.75;2.10;;;;;;;14.53;60.13;100914.91;4980173;28;123949;-80
2024/02/16 01:06:24;;;;;;;10.32;2.45;;;;;;;14.53;60.17;100917.59;4966045;28;124124;-80
2024/02/16 01:08:52;;;;;;;4.43;2.42;;;;;;;14.51;60.17;100924.81;4958922;28;119205;-80
2024/02/16 01:11:19;;;;;;;4.50;2.08;;;;;;;14.50;60.07;100912.44;4963625;28;119040;-80
2024/02/16 01:13:46;;;;;;;6.35;2.35;;;;;;;14.48;59.94;100914.31;4957892;28;122162;-80
2024/02/16 01:16:13;;;;;;;7.53;2.63;;;;;;;14.47;60.08;100901.97;4966774;28;124214;-80
2024/02/16 01:18:41;;;;;;;5.28;2.50;;;;;;;14.46;60.12;100904.72;4963388;28;120425;-80
2024/02/16 01:21:08;;;;;;;4.75;2.50;;;;;;;14.44;60.34;100906.63;4963762;28;121169;-80
2024/02/16 01:23:36;;;;;;;6.25;2.40;;;;;;;14.43;60.01;100905.78;4959376;28;123246;-80
2024/02/16 01:26:03;;;;;;;5.20;2.40;;;;;;;14.41;60.15;100897.03;4949127;28;122876;-80
2024/02/16 01:28:30;;;;;;;7.72;2.75;;;;;;;14.40;60.35;100900.63;4965036;28;120006;-80
2024/02/16 01:30:58;;;;;;;5.28;2.80;;;;;;;14.40;60.03;100908.63;4944554;28;117918;-80
2024/02/16 01:33:25;;;;;;;4.00;2.15;;;;;;;14.38;60.06;100905.19;4975673;28;123626;-80
2024/02/16 01:35:52;;;;;;;5.10;2.60;;;;;;;14.35;60.08;100897.38;4978866;28;122176;-80
2024/02/16 01:38:22;;;;;;;6.32;2.80;;;;;;;14.34;60.32;100906.31;4965374;28;118333;-80
2024/02/16 01:40:49;;;;;;;7.05;2.75;;;;;;;14.32;60.20;100897.56;4970088;28;118001;-80
2024/02/16 01:43:20;;;;;;;6.85;2.60;;;;;;;14.30;60.21;100899.47;4954393;28;124113;-80
2024/02/16 01:45:48;;;;;;;4.82;2.63;;;;;;;14.29;60.20;100903.06;4965626;28;122924;-80
2024/02/16 01:48:16;;;;;;;4.55;2.30;;;;;;;14.28;60.31;100893.34;4963482;28;117632;-80
2024/02/16 01:50:44;;;;;;;5.80;2.70;;;;;;;14.26;60.62;100892.59;4962031;28;118236;-80
2024/02/16 01:53:12;;;;;;;5.78;2.40;;;;;;;14.23;60.28;100895.44;4969904;28;124078;-80
2024/02/16 01:55:39;;;;;;;4.80;2.55;;;;;;;14.23;60.37;100893.63;4968234;28;122906;-80
2024/02/16 01:58:07;;;;;;;6.13;2.40;;;;;;;14.21;60.35;100891.06;4969994;28;119353;-80
2024/02/16 02:00:34;;;;;;;6.95;2.60;;;;;;;14.20;60.34;100884.03;4976440;28;117206;-80
2024/02/16 02:03:02;;;;;;;3.92;2.53;;;;;;;14.19;60.14;100886.78;4983253;28;124012;-80
2024/02/16 02:05:29;;;;;;;7.13;2.60;;;;;;;14.17;60.33;100878.03;4962725;28;123381;-80
2024/02/16 02:07:56;;;;;;;5.53;2.40;;;;;;;14.16;60.24;100882.47;4972784;28;119638;-80
2024/02/16 02:10:24;;;;;;;3.38;2.30;;;;;;;14.16;60.36;100882.47;4963153;28;119170;-80
2024/02/16 02:12:51;;;;;;;5.75;2.40;;;;;;;14.16;60.26;100871.81;4964174;28;123011;-80
2024/02/16 02:15:19;;;;;;;4.97;2.35;;;;;;;14.16;60.59;100870.97;4968343;28;123830;-80
2024/02/16 02:17:46;;;;;;;3.88;2.55;;;;;;;14.15;60.37;100875.44;4962052;28;119131;-81
2024/02/16 02:20:14;;;;;;;4.03;2.60;;;;;;;14.14;60.38;100873.72;4971625;28;118743;-80
2024/02/16 02:22:42;;;;;;;7.28;2.40;;;;;;;14.14;60.41;100873.72;4957228;28;124634;-80
2024/02/16 02:25:10;;;;;;;4.93;2.45;;;;;;;14.15;60.40;100870.13;4968636;28;123098;-80
2024/02/16 02:27:38;;;;;;;5.03;2.28;;;;;;;14.17;60.36;100868.22;4941957;28;118063;-80
2024/02/16 02:30:09;;;;;;;3.75;2.33;;;;;;;14.18;60.39;100867.28;4977354;28;118192;-80
2024/02/16 02:32:36;;;;;;;5.18;2.55;;;;;;;14.19;60.57;100868.97;4968934;28;123595;-80
2024/02/16 02:35:05;;;;;;;4.15;2.50;;;;;;;14.20;60.55;100868.06;4963216;28;124182;-80
2024/02/16 02:37:32;;;;;;;5.20;2.33;;;;;;;14.20;60.38;100857.41;4964108;28;118214;-79
2024/02/16 02:39:59;;;;;;;7.25;2.22;;;;;;;14.21;60.45;100859.09;4947170;28;119411;-80
2024/02/16 02:42:28;;;;;;;3.42;2.20;;;;;;;14.23;60.36;100860.81;4967165;28;121909;-80
2024/02/16 02:44:55;;;;;;;6.35;2.55;;;;;;;14.24;60.33;100854.53;4956666;28;123547;-80
2024/02/16 02:47:22;;;;;;;4.43;2.47;;;;;;;14.25;60.23;100842.94;4962381;28;118422;-80
2024/02/16 02:49:49;;;;;;;6.60;2.53;;;;;;;14.28;60.29;100842.72;4982734;28;118022;-80
2024/02/16 02:52:17;;;;;;;5.07;2.55;;;;;;;14.28;60.29;100840.06;4951249;28;123550;-80
2024/02/16 02:54:44;;;;;;;3.35;2.28;;;;;;;14.30;60.21;100848.84;4968197;28;123324;-80
2024/02/16 02:57:11;;;;;;;3.80;2.50;;;;;;;14.31;60.38;100847.88;4983252;28;119967;-80
2024/02/16 02:59:38;;;;;;;4.75;2.10;;;;;;;14.33;60.30;100835.31;4967875;28;119158;-80
2024/02/16 03:02:05;;;;;;;5.10;2.30;;;;;;;14.35;60.38;100833.41;4969524;28;123961;-80
2024/02/16 03:04:33;;;;;;;5.60;2.38;;;;;;;14.36;60.30;100829.81;4982006;28;124086;-80
2024/02/16 03:07:00;;;;;;;6.22;2.85;;;;;;;14.39;60.26;100829.59;4957259;28;119985;-79
2024/02/16 03:09:28;;;;;;;7.75;2.35;;;;;;;14.41;60.22;100844.56;4970697;28;119005;-80
2024/02/16 03:11:55;;;;;;;3.45;2.42;;;;;;;14.44;60.06;100832.84;4969453;28;124200;-80
2024/02/16 03:14:23;;;;;;;4.63;2.30;;;;;;;14.46;60.20;100822.97;4958916;28;123847;-79
2024/02/16 03:16:50;;;;;;;4.50;2.17;;;;;;;14.47;60.10;100827.34;4970751;28;119082;-80
2024/02/16 03:19:17;;;;;;;4.28;2.70;;;;;;;14.46;60.14;100825.63;4969316;28;117276;-80
2024/02/16 03:21:47;;;;;;;5.40;2.70;;;;;;;14.49;59.89;100828.09;4968318;28;123052;-80
2024/02/16 03:24:14;;;;;;;6.70;2.40;;;;;;;14.50;59.92;100826.28;4965650;28;123667;-80
2024/02/16 03:26:41;;;;;;;7.00;2.60;;;;;;;14.49;59.87;100822.78;4952935;28;119186;-79
2024/02/16 03:29:08;;;;;;;5.32;2.50;;;;;;;14.50;59.97;100819.16;4958032;28;118513;-80
2024/02/16 03:31:35;;;;;;;5.07;2.55;;;;;;;14.51;59.90;100818.22;4967702;28;124556;-80
2024/02/16 03:34:03;;;;;;;5.65;2.70;;;;;;;14.50;59.75;100827.13;4967672;28;124032;-80
2024/02/16 03:36:30;;;;;;;4.90;2.40;;;;;;;14.50;59.83;100816.47;4980064;28;119147;-80
2024/02/16 03:38:58;;;;;;;8.60;2.70;;;;;;;14.49;59.73;100805.94;4964091;28;119128;-80
2024/02/16 03:41:25;;;;;;;5.78;2.80;;;;;;;14.48;59.83;100817.53;4965483;28;124845;-80
2024/02/16 03:43:53;;;;;;;5.88;2.72;;;;;;;14.48;59.70;100823.72;4957405;28;124490;-80
2024/02/16 03:46:21;;;;;;;3.58;2.20;;;;;;;14.48;59.70;100829.06;4962014;28;119979;-80
2024/02/16 03:48:48;;;;;;;6.95;2.78;;;;;;;14.48;59.59;100823.72;4960243;28;119467;-80
2024/02/16 03:51:15;;;;;;;5.45;2.60;;;;;;;14.46;59.57;100825.63;4963059;28;124529;-80
2024/02/16 03:53:44;;;;;;;3.92;2.40;;;;;;;14.45;59.45;100815.94;4957077;28;123584;-80
2024/02/16 03:56:12;;;;;;;4.57;2.38;;;;;;;14.44;59.60;100816.88;4964179;28;119287;-80
2024/02/16 03:58:39;;;;;;;4.82;2.30;;;;;;;14.43;59.73;100823.16;4970935;28;118113;-81
2024/02/16 04:01:06;;;;;;;5.75;2.70;;;;;;;14.44;59.65;100832.84;4940299;28;123647;-80
2024/02/16 04:03:37;;;;;;;7.88;2.60;;;;;;;14.43;59.67;100820.50;4958600;28;124472;-80
2024/02/16 04:06:04;;;;;;;5.10;2.42;;;;;;;14.44;59.81;100827.53;4945009;28;118988;-80
2024/02/16 04:08:32;;;;;;;5.68;2.30;;;;;;;14.44;59.81;100822.19;4958061;28;117859;-79
2024/02/16 04:10:59;;;;;;;5.72;2.65;;;;;;;14.45;59.81;100829.25;4965068;28;124320;-80
2024/02/16 04:13:26;;;;;;;4.68;2.33;;;;;;;14.47;59.82;100830.00;4966675;28;123831;-80
2024/02/16 04:15:54;;;;;;;3.60;2.40;;;;;;;14.47;59.74;100827.34;4966861;28;120383;-80
2024/02/16 04:18:21;;;;;;;3.65;2.58;;;;;;;14.45;59.94;100826.59;4943662;28;119322;-80
2024/02/16 04:20:49;;;;;;;4.53;2.78;;;;;;;14.46;59.75;100820.28;4986498;28;123383;-80
2024/02/16 04:23:16;;;;;;;5.47;2.70;;;;;;;14.47;59.88;100822.03;4968376;28;123089;-80
2024/02/16 04:25:43;;;;;;;4.85;2.30;;;;;;;14.47;59.90;100827.34;4985136;28;118385;-80
2024/02/16 04:28:11;;;;;;;5.60;2.70;;;;;;;14.48;59.78;100823.72;4967632;28;118412;-79
2024/02/16 04:30:38;;;;;;;5.03;2.42;;;;;;;14.48;59.87;100823.72;4968627;28;123139;-80
2024/02/16 04:33:05;;;;;;;5.22;2.67;;;;;;;14.50;59.76;100818.28;4961202;28;124241;-80
2024/02/16 04:35:33;;;;;;;4.38;2.83;;;;;;;14.51;59.83;100820.88;4985256;28;120529;-79
2024/02/16 04:38:00;;;;;;;4.93;2.53;;;;;;;14.54;59.78;100823.34;4994942;28;119557;-80
2024/02/16 04:40:28;;;;;;;7.05;2.95;;;;;;;14.55;59.89;100830.38;4990569;28;125212;-80
2024/02/16 04:42:55;;;;;;;6.43;2.88;;;;;;;14.57;59.87;100828.50;4986823;28;124275;-80
2024/02/16 04:45:22;;;;;;;5.50;2.70;;;;;;;14.59;59.80;100839.94;4996946;28;118688;-80
2024/02/16 04:47:49;;;;;;;4.30;2.40;;;;;;;14.61;59.71;100829.19;4991973;28;119879;-80
2024/02/16 04:50:17;;;;;;;5.18;2.45;;;;;;;14.63;59.89;100837.94;4983269;28;124981;-80
2024/02/16 04:52:44;;;;;;;3.72;2.20;;;;;;;14.66;59.80;100836.91;4975299;28;123276;-80
2024/02/16 04:55:11;;;;;;;4.63;2.50;;;;;;;14.69;59.78;100834.91;4985688;28;120162;-80
2024/02/16 04:57:38;;;;;;;3.95;2.30;;;;;;;14.71;59.85;100834.78;4992190;28;118270;-80
2024/02/16 05:00:09;;;;;;;5.32;2.40;;;;;;;14.73;59.91;100832.88;4979338;28;124728;-80
2024/02/16 05:02:36;;;;;;;3.42;1.92;;;;;;;14.74;59.70;100829.28;4973143;28;123981;-81
2024/02/16 05:05:04;;;;;;;8.15;2.47;;;;;;;14.75;59.83;100831.00;4977503;28;117365;-80
2024/02/16 05:07:33;;;;;;;4.85;2.22;;;;;;;14.77;59.80;100829.09;4963503;28;119639;-80
2024/02/16 05:10:01;;;;;;;3.58;2.40;;;;;;;14.79;59.70;100827.19;4965687;28;123361;-80
2024/02/16 05:12:29;;;;;;;4.88;2.08;;;;;;;14.81;59.58;100819.94;4976547;28;123535;-80
2024/02/16 05:14:56;;;;;;;3.13;1.70;;;;;;;14.82;59.81;100821.66;4966642;28;121472;-80
2024/02/16 05:17:24;;;;;;;6.72;2.60;;;;;;;14.84;59.87;100825.06;4961418;28;118088;-80
2024/02/16 05:19:53;;;;;;;6.07;2.45;;;;;;;14.86;59.75;100820.53;4977079;28;123580;-80
2024/02/16 05:22:24;;;;;;;6.00;2.70;;;;;;;14.90;59.50;100824.69;4964809;28;123444;-81
2024/02/16 05:24:51;;;;;;;4.00;2.60;;;;;;;14.90;59.56;100824.69;4966554;28;119226;-80
2024/02/16 05:27:18;;;;;;;4.60;2.17;;;;;;;14.94;59.59;100825.38;4982581;28;118657;-81
2024/02/16 05:29:46;;;;;;;6.18;3.10;;;;;;;14.96;59.63;100824.31;4971565;28;122593;-81
2024/02/16 05:32:13;;;;;;;7.72;2.72;;;;;;;14.97;59.53;100818.03;4972277;28;123352;-80
2024/02/16 05:34:42;;;;;;;4.95;2.38;;;;;;;15.01;59.65;100825.81;4963689;28;119329;-81
2024/02/16 05:37:09;;;;;;;3.90;2.45;;;;;;;15.04;59.62;100822.97;4953319;28;118074;-81
2024/02/16 05:39:53;;;;;;;5.50;2.30;;;;;;;15.07;59.64;100830.75;4963352;28;122593;-80
2024/02/16 05:42:23;;;;;;;4.93;2.58;;;;;;;15.10;59.69;100826.06;4977247;28;121892;-81
2024/02/16 05:44:51;;;;;;;6.15;2.50;;;;;;;15.14;59.52;100816.06;4972073;28;119225;-81
2024/02/16 05:47:19;;;;;;;4.75;2.35;;;;;;;15.17;59.73;100821.22;4960526;28;119359;-81
2024/02/16 05:49:46;;;;;;;4.80;2.38;;;;;;;15.19;59.53;100814.81;4943080;28;124276;-81
2024/02/16 05:52:20;;;;;;;5.40;2.72;;;;;;;15.23;59.48;100820.81;4956321;28;123215;-80
2024/02/16 05:54:49;;;;;;;5.47;2.28;;;;;;;15.25;59.60;100821.56;4982880;28;119506;-80
2024/02/16 05:57:17;;;;;;;6.45;2.60;;;;;;;15.27;59.53;100821.47;4978200;28;119081;-80
2024/02/16 05:59:45;;;;;;;2.92;2.08;;;;;;;15.29;59.46;100820.41;4968607;28;123888;-80
2024/02/16 06:02:13;;;;;;;4.13;2.22;;;;;;;15.32;59.36;100825.53;4957682;28;124012;-81
2024/02/16 06:04:41;;;;;;;5.10;2.42;;;;;;;15.34;59.30;100823.63;4972000;28;118821;-80
2024/02/16 06:07:08;;;;;;;6.13;2.20;;;;;;;15.37;59.43;100834.13;4950434;28;118580;-80
2024/02/16 06:09:37;;;;;;;4.88;2.25;;;;;;;15.41;59.27;100833.91;4965380;28;126270;-80
2024/02/16 06:12:06;;;;;;;5.28;2.30;;;;;;;15.42;59.34;100840.97;4966771;28;124492;-81
2024/02/16 06:14:34;;;;;;;6.72;2.67;;;;;;;15.45;59.36;100846.09;4959739;28;121038;-81
2024/02/16 06:17:02;;;;;;;4.28;2.38;;;;;;;15.47;59.45;100838.84;4977263;28;119738;-80
2024/02/16 06:19:29;;;;;;;5.45;2.45;;;;;;;15.49;59.27;100852.97;4958783;28;123729;-80
2024/02/16 06:21:56;;;;;;;4.38;2.05;;;;;;;15.50;59.42;100849.31;4946846;28;122911;-81
2024/02/16 06:24:24;;;;;;;3.83;2.20;;;;;;;15.52;59.22;100852.72;4951028;28;119172;-80
2024/02/16 06:26:51;;;;;;;4.25;2.45;;;;;;;15.53;59.19;100859.78;4964449;28;117839;-81
2024/02/16 06:29:23;;;;;;;3.83;2.25;;;;;;;15.53;59.11;100855.31;4961896;28;124737;-80
2024/02/16 06:31:51;;;;;;;6.07;1.95;;;;;;;15.54;59.07;100856.19;4965691;28;122937;-80
2024/02/16 06:34:19;;;;;;;5.15;2.42;;;;;;;15.54;59.21;100856.19;4968574;28;119216;-80
2024/02/16 06:36:47;;;;;;;6.45;2.50;;;;;;;15.56;58.87;100865.78;4977561;28;118995;-80
2024/02/16 06:39:16;;;;;;;4.45;2.20;;;;;;;15.56;58.96;100867.63;4958691;28;125193;-80
2024/02/16 06:41:45;;;;;;;4.70;2.20;;;;;;;15.57;59.29;100866.66;4966769;28;123609;-81
2024/02/16 06:44:14;;;;;;;6.80;2.40;;;;;;;15.58;59.43;100873.72;4964923;28;119410;-80
2024/02/16 06:46:42;;;;;;;4.90;2.35;;;;;;;15.58;59.28;100874.56;4960835;28;118698;-80
2024/02/16 06:49:09;;;;;;;4.55;2.28;;;;;;;15.60;59.11;100868.28;4964153;28;124068;-80
2024/02/16 06:51:37;;;;;;;2.90;2.00;;;;;;;15.61;59.30;100873.50;4983416;28;123877;-80
2024/02/16 06:54:04;;;;;;;5.45;1.85;;;;;;;15.63;59.38;100870.72;4964908;28;119485;-80
2024/02/16 06:56:32;;;;;;;4.88;2.22;;;;;;;15.64;59.45;100875.13;4967007;28;119661;-80
2024/02/16 06:58:59;;;;;;;3.15;1.88;;;;;;;15.66;59.36;100882.06;4977195;28;123043;-80
2024/02/16 07:01:29;;;;;;;3.80;2.03;;;;;;;15.69;59.52;100892.56;4961517;28;123801;-80
2024/02/16 07:03:57;;;;;;;3.17;1.80;;;;;;;15.71;59.72;100895.97;4959168;28;120394;-81
2024/02/16 07:06:26;;;;;;;4.40;1.92;;;;;;;15.74;59.29;100895.78;4972946;28;121300;-80
2024/02/16 07:08:54;;;;;;;3.45;2.08;;;;;;;15.77;59.52;100900.94;4976792;28;122676;-81
2024/02/16 07:11:21;;;;;;;4.03;1.90;;;;;;;15.80;59.63;100905.19;4984930;28;124910;-80
2024/02/16 07:13:49;;;;;;;4.10;2.10;;;;;;;15.83;59.64;100907.69;4961649;28;118610;-80
2024/02/16 07:16:16;;;;;;;3.35;1.80;;;;;;;15.85;59.53;100912.94;4962458;28;118531;-81
2024/02/16 07:18:43;;;;;;;3.28;1.92;;;;;;;15.88;59.40;100918.06;4959377;28;123697;-81
2024/02/16 07:21:11;;;;;;;4.43;1.95;;;;;;;15.90;59.51;100918.84;4946459;28;122731;-81
2024/02/16 07:23:38;;;;;;;5.00;1.60;;;;;;;15.92;59.56;100924.94;4967441;28;118951;-81
2024/02/16 07:26:07;;;;;;;5.75;1.90;;;;;;;15.94;59.51;100923.00;4959727;28;118607;-81
2024/02/16 07:28:36;;;;;;;3.90;1.70;;;;;;;15.98;59.61;100929.84;4973874;28;123363;-81
2024/02/16 07:31:16;;;;;;;4.28;1.73;;;;;;;16.01;59.47;100935.00;4968877;28;122814;-81
2024/02/16 07:33:43;;;;;;;4.90;2.00;;;;;;;16.06;59.61;100935.53;4963360;28;119238;-80
2024/02/16 07:36:11;;;;;;;4.18;1.90;;;;;;;16.07;59.61;100923.91;4961943;28;119351;-81
2024/02/16 07:38:38;;;;;;;4.53;2.00;;;;;;;16.11;59.54;100930.75;4974592;28;123682;-81
2024/02/16 07:41:07;;;;;;;3.60;1.58;;;;;;;16.13;59.62;100939.50;4974942;28;122224;-81
2024/02/16 07:44:09;;;;;;;4.22;1.92;;;;;;;16.19;59.59;100942.75;4978179;28;121004;-80
2024/02/16 07:46:43;;;;;;;4.43;1.90;;;;;;;16.22;59.42;100937.16;4981315;28;120306;-80
2024/02/16 07:49:12;;;;;;;4.00;1.60;;;;;;;16.25;59.55;100953.00;4971279;28;123417;-80
2024/02/16 07:51:40;;;;;;;3.58;1.50;;;;;;;16.29;59.53;100949.16;4967043;28;123970;-80
2024/02/16 07:54:08;;;;;;;3.33;1.70;;;;;;;16.33;59.07;100953.34;4951638;28;119795;-80
2024/02/16 07:56:35;;;;;;;4.05;2.13;;;;;;;16.37;59.44;100952.19;4953671;28;119459;-81
2024/02/16 07:59:02;;;;;;;4.32;1.90;;;;;;;16.41;59.61;100952.84;4965489;28;123428;-83
2024/02/16 08:01:29;;;;;;;3.10;1.60;;;;;;;16.44;59.64;100958.81;4962827;28;122532;-80
2024/02/16 08:03:57;;;;;;;3.53;1.33;;;;;;;16.47;59.40;100963.97;4954285;28;119729;-81
2024/02/16 08:06:26;;;;;;;3.22;1.73;;;;;;;16.52;59.23;100961.00;4963985;28;117260;-81
2024/02/16 08:08:54;;;;;;;4.05;1.67;;;;;;;16.53;59.42;100963.53;4964108;28;123501;-81
2024/02/16 08:11:22;;;;;;;3.65;2.08;;;;;;;16.57;59.52;100968.69;4984574;28;124129;-81
2024/02/16 08:13:50;;;;;;;3.67;1.90;;;;;;;16.60;59.51;100968.50;4977144;28;117843;-81
2024/02/16 08:16:17;;;;;;;2.65;1.58;;;;;;;16.63;59.43;100968.25;4980439;28;118692;-81
2024/02/16 08:18:45;;;;;;;3.58;1.70;;;;;;;16.66;59.42;100973.41;4969463;28;124972;-81
2024/02/16 08:21:15;;;;;;;3.40;1.92;;;;;;;16.67;59.55;100980.47;4947217;28;123565;-81
2024/02/16 08:23:42;;;;;;;5.70;1.98;;;;;;;16.70;59.29;100985.59;4961197;28;119407;-80
2024/02/16 08:26:09;;;;;;;5.75;1.80;;;;;;;16.72;59.33;100983.69;4959474;28;116774;-80
2024/02/16 08:28:38;;;;;;;4.13;1.90;;;;;;;16.74;59.32;100987.09;4976507;28;123836;-80
2024/02/16 08:31:06;;;;;;;6.03;1.85;;;;;;;16.76;59.32;100990.53;4982509;28;122656;-81
2024/02/16 08:33:36;;;;;;;3.22;1.77;;;;;;;16.77;59.31;101002.94;4960406;28;118568;-81
2024/02/16 08:36:06;;;;;;;3.28;1.55;;;;;;;16.80;59.27;100996.53;4968270;28;119714;-81
2024/02/16 08:38:36;;;;;;;2.92;1.73;;;;;;;16.80;59.14;100997.41;4956634;28;125186;-80
2024/02/16 08:41:03;;;;;;;4.68;1.80;;;;;;;16.80;59.19;101000.09;4976690;28;123098;-80
2024/02/16 08:43:31;;;;;;;3.65;1.80;;;;;;;16.81;59.23;101004.44;4946922;28;119485;-81
2024/02/16 08:45:58;;;;;;;4.47;1.77;;;;;;;16.83;59.37;101013.25;4978689;28;120717;-80
2024/02/16 08:48:25;;;;;;;4.43;1.90;;;;;;;16.79;59.21;101011.72;4965908;28;124309;-81
2024/02/16 08:50:53;;;;;;;3.75;1.83;;;;;;;16.78;59.38;101015.34;4952393;28;123295;-80
2024/02/16 08:53:20;;;;;;;3.45;1.67;;;;;;;16.76;59.26;101017.28;4961817;28;118166;-81
2024/02/16 08:55:47;;;;;;;4.38;1.88;;;;;;;16.75;59.45;101015.56;4951213;28;118256;-81
2024/02/16 08:58:14;;;;;;;3.00;1.70;;;;;;;16.76;59.56;101027.97;4967865;28;125325;-80
2024/02/16 09:00:41;;;;;;;3.92;1.63;;;;;;;16.76;59.68;101038.66;4960481;28;124308;-81
2024/02/16 09:03:09;;;;;;;3.88;1.90;;;;;;;16.76;59.37;101035.16;4952680;28;118009;-81
2024/02/16 09:05:36;;;;;;;6.97;1.90;;;;;;;16.77;59.61;101039.56;4975821;28;118069;-81
2024/02/16 09:08:05;;;;;;;4.45;1.95;;;;;;;16.76;59.72;101033.31;4970598;28;124635;-81
2024/02/16 09:10:33;;;;;;;4.82;2.00;;;;;;;16.77;59.58;101051.09;4962249;28;124595;-81
2024/02/16 09:13:04;;;;;;;6.40;2.30;;;;;;;16.78;59.59;101042.09;4973707;28;119105;-80
2024/02/16 09:15:31;;;;;;;6.80;2.50;;;;;;;16.82;59.73;101043.66;4968567;28;119057;-80
2024/02/16 09:17:59;;;;;;;6.97;2.70;;;;;;;16.84;59.87;101046.22;4976288;28;123895;-80
2024/02/16 09:20:26;;;;;;;6.50;2.75;;;;;;;16.87;59.77;101046.84;4968502;28;124110;-80
2024/02/16 09:22:53;;;;;;;5.65;2.28;;;;;;;16.90;59.74;101052.00;4963959;28;119174;-80
2024/02/16 09:25:21;;;;;;;3.90;2.30;;;;;;;16.94;59.85;101052.66;4970244;28;118932;-80
2024/02/16 09:27:48;;;;;;;4.32;2.30;;;;;;;16.99;59.88;101065.72;4969444;28;123924;-80
2024/02/16 09:30:15;;;;;;;3.70;2.08;;;;;;;17.02;59.85;101065.50;4966950;28;124209;-80
2024/02/16 09:32:44;;;;;;;4.95;2.25;;;;;;;17.04;59.80;101068.94;4965403;28;120474;-80
2024/02/16 09:35:11;;;;;;;5.45;2.13;;;;;;;17.08;59.86;101070.44;4951208;28;118842;-80
2024/02/16 09:37:39;;;;;;;6.45;2.28;;;;;;;17.10;59.92;101074.75;4963441;28;123968;-81
2024/02/16 09:40:08;;;;;;;4.75;2.10;;;;;;;17.13;59.78;101074.50;4968429;28;124708;-81
2024/02/16 09:42:38;;;;;;;4.82;2.13;;;;;;;17.16;59.75;101078.81;4954506;28;117368;-81
2024/02/16 09:45:07;;;;;;;5.18;2.33;;;;;;;17.18;59.75;101084.91;4965116;28;96783;-81
2024/02/16 09:47:35;;;;;;;4.82;1.90;;;;;;;17.20;59.81;101085.66;4993841;28;122068;-81
2024/02/16 09:50:02;;;;;;;4.05;2.10;;;;;;;17.23;59.64;101101.50;4985047;28;124036;-81
2024/02/16 09:52:30;;;;;;;5.10;2.15;;;;;;;17.25;59.91;101099.59;4978112;28;118780;-81
2024/02/16 09:54:58;;;;;;;7.85;2.30;;;;;;;17.29;59.72;101105.56;4998940;28;118234;-81
2024/02/16 09:57:25;;;;;;;4.20;2.00;;;;;;;17.32;59.85;101111.56;4990287;28;123048;-81
2024/02/16 09:59:52;;;;;;;4.57;2.08;;;;;;;17.36;59.99;101106.00;4991618;28;125573;-81
2024/02/16 10:02:20;;;;;;;7.45;2.30;;;;;;;17.40;59.72;101107.50;4994821;28;120266;-82
2024/02/16 10:04:47;;;;;;;5.25;2.58;;;;;;;17.43;59.76;101112.66;4976539;28;119213;-82
2024/02/16 10:07:14;;;;;;;4.45;2.38;;;;;;;17.45;59.92;101116.09;5000267;28;123715;-81
2024/02/16 10:09:41;;;;;;;5.70;2.20;;;;;;;17.48;59.69;101134.63;4972061;28;123131;-81
2024/02/16 10:12:09;;;;;;;5.32;2.03;;;;;;;17.49;59.68;101133.66;4973520;28;119935;-81
2024/02/16 10:14:40;;;;;;;4.10;2.17;;;;;;;17.50;59.72;101132.69;4966966;28;119277;-81
2024/02/16 10:17:09;;;;;;;4.40;2.17;;;;;;;17.52;59.80;101138.81;4968022;28;123481;-81
2024/02/16 10:19:39;;;;;;;5.68;2.47;;;;;;;17.54;59.93;101142.22;4970257;28;123263;-81
2024/02/16 10:22:10;;;;;;;6.28;2.70;;;;;;;17.55;59.90;101151.09;4965878;28;119293;-81
2024/02/16 10:24:39;;;;;;;5.00;2.50;;;;;;;17.55;59.80;101149.28;4965153;28;120337;-80
2024/02/16 10:27:15;;;;;;;7.78;2.28;;;;;;;17.53;59.73;101156.56;4968237;28;123662;-81
2024/02/16 10:29:49;;;;;;;7.03;2.70;;;;;;;17.50;59.77;101162.16;4961060;28;123557;-80
2024/02/16 10:32:16;;;;;;;4.82;2.28;;;;;;;17.47;59.79;101168.56;4966042;28;119148;-80
2024/02/16 10:34:45;;;;;;;4.50;2.40;;;;;;;17.43;59.89;101168.88;4969143;28;118598;-80
2024/02/16 10:37:14;;;;;;;5.85;2.70;;;;;;;17.40;60.04;101177.13;4948426;28;123237;-81
2024/02/16 10:39:43;;;;;;;5.78;2.25;;;;;;;17.37;60.06;101182.72;4965210;28;123838;-80
2024/02/16 10:42:12;;;;;;;6.35;2.50;;;;;;;17.32;60.19;101181.16;4967984;28;119385;-80
2024/02/16 10:44:42;;;;;;;6.97;2.70;;;;;;;17.29;60.15;101184.06;4960905;28;121224;-80
2024/02/16 10:47:09;;;;;;;7.57;2.80;;;;;;;17.26;60.06;101189.63;4963306;28;123056;-80
2024/02/16 10:49:37;;;;;;;5.32;2.45;;;;;;;17.24;60.12;101190.69;4969184;28;124867;-80
2024/02/16 10:52:06;;;;;;;6.50;2.78;;;;;;;17.20;60.31;101190.06;4952467;28;118789;-80
2024/02/16 10:54:35;;;;;;;5.97;2.60;;;;;;;17.18;60.56;101194.66;4967525;28;118439;-80
2024/02/16 10:57:07;;;;;;;7.05;2.38;;;;;;;17.15;60.44;101205.56;4981192;28;123758;-80
2024/02/16 10:59:50;;;;;;;5.78;2.65;;;;;;;17.12;60.52;101200.41;4967093;28;123560;-80
2024/02/16 11:02:18;;;;;;;5.05;2.42;;;;;;;17.13;60.72;101210.16;4956590;28;118533;-80
2024/02/16 11:04:46;;;;;;;5.68;2.47;;;;;;;17.11;60.49;101204.06;4962618;28;118738;-80
2024/02/16 11:07:18;;;;;;;7.25;2.50;;;;;;;17.10;60.62;101207.66;4965661;28;124280;-80
2024/02/16 11:09:47;;;;;;;6.05;2.90;;;;;;;17.10;60.79;101215.69;4965499;28;122672;-80
2024/02/16 11:12:15;;;;;;;8.55;3.33;;;;;;;17.10;60.75;101218.38;4972254;28;120214;-80
2024/02/16 11:14:54;;;;;;;6.78;3.03;;;;;;;17.09;60.71;101224.72;4963788;28;119975;-79
2024/02/16 11:17:23;;;;;;;7.40;3.13;;;;;;;17.09;60.72;101227.38;4976304;28;123025;-81
2024/02/16 11:19:54;;;;;;;7.03;2.60;;;;;;;17.07;60.77;101223.94;4959557;28;123885;-81
2024/02/16 11:22:23;;;;;;;6.65;2.88;;;;;;;17.05;60.86;101236.59;4963207;28;118500;-81